createdAt,value
2016-11-25T00:02:15.114Z,0
2016-11-25T00:02:56.818Z,0
2016-11-25T00:03:38.493Z,0
2016-11-25T00:04:20.137Z,0
2016-11-25T00:05:01.779Z,0
2016-11-25T00:05:43.596Z,0
2016-11-25T00:06:25.494Z,0
2016-11-25T00:07:07.272Z,0
2016-11-25T00:07:48.877Z,0
2016-11-25T00:08:30.612Z,0
2016-11-25T00:09:12.213Z,0
2016-11-25T00:11:12.206Z,0
2016-11-25T00:11:53.915Z,0
2016-11-25T00:14:14.488Z,0
2016-11-25T00:14:56.149Z,0
2016-11-25T00:15:37.901Z,0
2016-11-25T00:16:19.555Z,0
2016-11-25T00:17:01.328Z,0
2016-11-25T00:17:42.956Z,0
2016-11-25T00:18:24.657Z,0
2016-11-25T00:19:06.263Z,0
2016-11-25T00:19:47.986Z,0
2016-11-25T00:20:29.641Z,0
2016-11-25T00:22:44.990Z,0
2016-11-25T00:23:26.689Z,0
2016-11-25T00:24:08.291Z,0
2016-11-25T00:24:49.810Z,0
2016-11-25T00:25:31.367Z,0
2016-11-25T00:26:12.966Z,0
2016-11-25T00:26:54.545Z,0
2016-11-25T00:27:36.240Z,0
2016-11-25T00:28:17.897Z,0
2016-11-25T00:28:59.729Z,0
2016-11-25T00:29:41.546Z,0
2016-11-25T00:30:23.334Z,0
2016-11-25T00:31:05.075Z,0
2016-11-25T00:31:46.644Z,0
2016-11-25T00:32:28.377Z,0
2016-11-25T00:33:09.978Z,0
2016-11-25T00:33:51.806Z,0
2016-11-25T00:34:33.487Z,0
2016-11-25T00:36:54.100Z,0
2016-11-25T00:37:35.734Z,0
2016-11-25T00:38:17.344Z,0
2016-11-25T00:38:58.818Z,0
2016-11-25T00:39:40.494Z,0
2016-11-25T00:40:22.196Z,0
2016-11-25T00:42:58.499Z,0
2016-11-25T00:45:19.065Z,0
2016-11-25T00:46:00.732Z,0
2016-11-25T00:46:42.478Z,0
2016-11-25T00:47:24.041Z,0
2016-11-25T00:48:05.784Z,0
2016-11-25T00:48:47.604Z,0
2016-11-25T00:49:29.257Z,0
2016-11-25T00:50:10.925Z,0
2016-11-25T00:50:52.569Z,0
2016-11-25T00:51:34.399Z,0
2016-11-25T00:52:16.088Z,0
2016-11-25T00:52:57.800Z,0
2016-11-25T00:53:39.547Z,0
2016-11-25T00:54:21.251Z,0
2016-11-25T00:55:02.921Z,0
2016-11-25T00:57:23.723Z,0
2016-11-25T00:59:44.464Z,0
2016-11-25T01:00:26.094Z,0
2016-11-25T01:01:07.781Z,0
2016-11-25T01:01:49.223Z,0
2016-11-25T01:04:04.479Z,0
2016-11-25T01:04:46.279Z,0
2016-11-25T01:05:28.090Z,0
2016-11-25T01:06:09.739Z,0
2016-11-25T01:06:51.217Z,0
2016-11-25T01:07:33.016Z,0
2016-11-25T01:08:14.791Z,0
2016-11-25T01:10:35.612Z,0
2016-11-25T01:11:17.439Z,0
2016-11-25T01:13:48.054Z,0
2016-11-25T01:14:29.811Z,0
2016-11-25T01:15:11.542Z,0
2016-11-25T01:15:53.255Z,0
2016-11-25T01:16:34.982Z,0
2016-11-25T01:17:16.760Z,0
2016-11-25T01:17:58.489Z,0
2016-11-25T01:18:40.271Z,0
2016-11-25T01:19:21.946Z,0
2016-11-25T01:20:03.672Z,0
2016-11-25T01:20:45.293Z,0
2016-11-25T01:23:05.951Z,0
2016-11-25T01:23:47.520Z,0
2016-11-25T01:29:21.306Z,0
2016-11-25T01:30:03.015Z,0
2016-11-25T01:30:44.740Z,0
2016-11-25T01:31:26.399Z,0
2016-11-25T01:32:08.058Z,0
2016-11-25T01:34:08.913Z,0
2016-11-25T01:34:50.317Z,0
2016-11-25T01:35:31.875Z,0
2016-11-25T01:36:13.492Z,0
2016-11-25T01:36:55.321Z,0
2016-11-25T01:37:36.966Z,0
2016-11-25T01:38:18.497Z,0
2016-11-25T01:39:00.144Z,0
2016-11-25T01:39:41.697Z,0
2016-11-25T01:40:23.382Z,0
2016-11-25T01:41:05.216Z,0
2016-11-25T01:41:46.859Z,0
2016-11-25T01:42:28.491Z,0
2016-11-25T01:45:04.832Z,0
2016-11-25T01:49:30.475Z,0
2016-11-25T01:50:12.076Z,0
2016-11-25T01:50:53.712Z,0
2016-11-25T01:51:35.326Z,0
2016-11-25T01:52:16.984Z,0
2016-11-25T01:54:37.627Z,0
2016-11-25T01:57:13.943Z,0
2016-11-25T01:57:55.684Z,0
2016-11-25T01:58:37.389Z,0
2016-11-25T01:59:18.831Z,0
2016-11-25T01:59:59.493Z,0
2016-11-25T02:00:40.031Z,0
2016-11-25T02:01:20.566Z,0
2016-11-25T02:02:01.104Z,0
2016-11-25T02:02:41.640Z,0
2016-11-25T02:03:22.179Z,0
2016-11-25T02:04:02.704Z,0
2016-11-25T02:04:43.241Z,0
2016-11-25T02:05:23.781Z,0
2016-11-25T02:06:04.318Z,0
2016-11-25T02:06:44.849Z,0
2016-11-25T02:07:25.387Z,0
2016-11-25T02:08:05.925Z,0
2016-11-25T02:08:46.462Z,0
2016-11-25T02:09:26.990Z,0
2016-11-25T02:10:07.523Z,0
2016-11-25T02:10:48.058Z,0
2016-11-25T02:11:28.590Z,0
2016-11-25T02:12:09.124Z,0
2016-11-25T02:12:49.659Z,0
2016-11-25T02:13:30.186Z,0
2016-11-25T02:14:10.724Z,0
2016-11-25T02:14:51.273Z,0
2016-11-25T02:15:31.822Z,0
2016-11-25T02:16:12.339Z,0
2016-11-25T02:16:52.865Z,0
2016-11-25T02:17:33.400Z,0
2016-11-25T02:18:13.965Z,0
2016-11-25T02:18:54.501Z,0
2016-11-25T02:19:35.042Z,0
2016-11-25T02:20:15.579Z,0
2016-11-25T02:20:56.113Z,0
2016-11-25T02:21:36.649Z,0
2016-11-25T02:22:17.173Z,0
2016-11-25T02:22:57.715Z,0
2016-11-25T02:23:38.252Z,0
2016-11-25T02:24:18.784Z,0
2016-11-25T02:24:59.324Z,0
2016-11-25T02:25:39.856Z,0
2016-11-25T02:26:20.395Z,0
2016-11-25T02:27:00.932Z,0
2016-11-25T02:27:41.470Z,0
2016-11-25T02:28:22.003Z,0
2016-11-25T02:29:02.537Z,0
2016-11-25T02:29:43.067Z,0
2016-11-25T02:30:23.606Z,0
2016-11-25T02:31:04.135Z,0
2016-11-25T02:31:44.674Z,0
2016-11-25T02:32:25.244Z,0
2016-11-25T02:33:05.787Z,0
2016-11-25T02:33:46.325Z,0
2016-11-25T02:34:26.862Z,0
2016-11-25T02:35:07.395Z,0
2016-11-25T02:35:47.936Z,0
2016-11-25T02:36:28.474Z,0
2016-11-25T02:37:09.010Z,0
2016-11-25T02:37:49.539Z,0
2016-11-25T02:38:30.089Z,0
2016-11-25T02:39:10.630Z,0
2016-11-25T02:39:51.171Z,0
2016-11-25T02:40:31.708Z,0
2016-11-25T02:41:12.247Z,0
2016-11-25T02:41:52.789Z,0
2016-11-25T02:42:33.325Z,0
2016-11-25T02:43:13.861Z,0
2016-11-25T02:43:54.396Z,0
2016-11-25T02:44:34.936Z,0
2016-11-25T02:45:15.473Z,0
2016-11-25T02:45:56.012Z,0
2016-11-25T02:46:36.552Z,0
2016-11-25T02:47:17.090Z,0
2016-11-25T02:47:57.623Z,0
2016-11-25T02:48:38.147Z,0
2016-11-25T02:49:18.687Z,0
2016-11-25T02:49:59.226Z,0
2016-11-25T02:50:39.754Z,0
2016-11-25T02:51:20.285Z,0
2016-11-25T02:52:00.822Z,0
2016-11-25T02:52:41.353Z,0
2016-11-25T02:53:21.895Z,0
2016-11-25T02:54:02.431Z,0
2016-11-25T02:54:42.970Z,0
2016-11-25T02:55:23.506Z,0
2016-11-25T02:56:04.039Z,0
2016-11-25T02:56:44.576Z,0
2016-11-25T02:57:25.101Z,0
2016-11-25T02:58:05.650Z,0
2016-11-25T02:58:46.182Z,0
2016-11-25T02:59:26.723Z,0
2016-11-25T03:00:07.259Z,0
2016-11-25T03:00:47.793Z,0
2016-11-25T03:01:28.334Z,0
2016-11-25T03:02:08.870Z,0
2016-11-25T03:02:49.406Z,0
2016-11-25T03:03:29.948Z,0
2016-11-25T03:04:10.484Z,0
2016-11-25T03:04:51.027Z,0
2016-11-25T03:05:31.565Z,0
2016-11-25T03:06:12.133Z,0
2016-11-25T03:06:52.673Z,0
2016-11-25T03:07:33.215Z,0
2016-11-25T03:08:13.749Z,0
2016-11-25T03:08:54.288Z,0
2016-11-25T03:09:34.823Z,0
2016-11-25T03:10:15.361Z,0
2016-11-25T03:10:55.904Z,0
2016-11-25T03:11:36.432Z,0
2016-11-25T03:12:16.966Z,0
2016-11-25T03:12:57.502Z,0
2016-11-25T03:13:38.039Z,0
2016-11-25T03:14:18.566Z,0
2016-11-25T03:14:59.108Z,0
2016-11-25T03:15:39.647Z,0
2016-11-25T03:16:20.179Z,0
2016-11-25T03:17:00.725Z,0
2016-11-25T03:17:41.262Z,0
2016-11-25T03:18:21.796Z,0
2016-11-25T03:19:02.324Z,0
2016-11-25T03:19:42.862Z,0
2016-11-25T03:20:23.400Z,0
2016-11-25T03:21:03.944Z,0
2016-11-25T03:21:44.481Z,0
2016-11-25T03:22:25.013Z,0
2016-11-25T03:23:05.538Z,0
2016-11-25T03:23:46.076Z,0
2016-11-25T03:24:26.617Z,0
2016-11-25T03:25:07.140Z,0
2016-11-25T03:25:47.682Z,0
2016-11-25T03:26:28.218Z,0
2016-11-25T03:27:08.752Z,0
2016-11-25T03:27:49.292Z,0
2016-11-25T03:28:29.825Z,0
2016-11-25T03:29:10.365Z,0
2016-11-25T03:29:50.926Z,0
2016-11-25T03:30:31.463Z,0
2016-11-25T03:31:11.999Z,0
2016-11-25T03:31:52.537Z,0
2016-11-25T03:32:33.182Z,0
2016-11-25T03:33:13.719Z,0
2016-11-25T03:33:54.258Z,0
2016-11-25T03:34:34.795Z,0
2016-11-25T03:35:15.335Z,0
2016-11-25T03:35:55.879Z,0
2016-11-25T03:36:36.413Z,0
2016-11-25T03:37:16.949Z,0
2016-11-25T03:37:57.498Z,0
2016-11-25T03:38:38.027Z,0
2016-11-25T03:39:18.565Z,0
2016-11-25T03:39:59.105Z,0
2016-11-25T03:40:39.646Z,0
2016-11-25T03:41:20.183Z,0
2016-11-25T03:42:00.717Z,0
2016-11-25T03:42:41.250Z,0
2016-11-25T03:43:21.779Z,0
2016-11-25T03:44:02.321Z,0
2016-11-25T03:44:42.854Z,0
2016-11-25T03:45:23.392Z,0
2016-11-25T03:46:03.928Z,0
2016-11-25T03:46:44.455Z,0
2016-11-25T03:47:24.995Z,0
2016-11-25T03:48:05.530Z,0
2016-11-25T03:48:46.066Z,0
2016-11-25T03:49:26.601Z,0
2016-11-25T03:50:07.139Z,0
2016-11-25T03:50:47.675Z,0
2016-11-25T03:51:28.205Z,0
2016-11-25T03:52:08.738Z,0
2016-11-25T03:52:49.373Z,0
2016-11-25T03:53:29.907Z,0
2016-11-25T03:54:10.444Z,0
2016-11-25T03:54:50.981Z,0
2016-11-25T03:55:31.524Z,0
2016-11-25T03:56:12.060Z,0
2016-11-25T03:56:52.595Z,0
2016-11-25T03:57:33.125Z,0
2016-11-25T03:58:13.662Z,0
2016-11-25T03:58:54.201Z,0
2016-11-25T03:59:34.740Z,0
2016-11-25T04:00:15.275Z,0
2016-11-25T04:00:55.815Z,0
2016-11-25T04:01:36.347Z,0
2016-11-25T04:02:16.885Z,0
2016-11-25T04:02:57.416Z,0
2016-11-25T04:03:37.952Z,0
2016-11-25T04:04:18.475Z,0
2016-11-25T04:04:59.018Z,0
2016-11-25T04:05:39.559Z,0
2016-11-25T04:06:20.096Z,0
2016-11-25T04:07:00.631Z,0
2016-11-25T04:07:41.165Z,0
2016-11-25T04:08:21.709Z,0
2016-11-25T04:09:02.245Z,0
2016-11-25T04:09:42.774Z,0
2016-11-25T04:10:23.313Z,0
2016-11-25T04:11:03.851Z,0
2016-11-25T04:11:44.381Z,0
2016-11-25T04:12:24.910Z,0
2016-11-25T04:13:05.449Z,0
2016-11-25T04:13:45.988Z,0
2016-11-25T04:14:26.525Z,0
2016-11-25T04:15:07.063Z,0
2016-11-25T04:15:47.583Z,0
2016-11-25T04:16:28.118Z,0
2016-11-25T04:17:08.653Z,0
2016-11-25T04:17:49.189Z,0
2016-11-25T04:18:29.729Z,0
2016-11-25T04:19:10.270Z,0
2016-11-25T04:19:50.791Z,0
2016-11-25T04:20:31.329Z,0
2016-11-25T04:21:11.864Z,0
2016-11-25T04:21:52.401Z,0
2016-11-25T04:22:32.932Z,0
2016-11-25T04:23:13.469Z,0
2016-11-25T04:23:54.012Z,0
2016-11-25T04:24:34.539Z,0
2016-11-25T04:25:15.075Z,0
2016-11-25T04:25:55.611Z,0
2016-11-25T04:26:36.146Z,0
2016-11-25T04:27:16.683Z,0
2016-11-25T04:27:57.216Z,0
2016-11-25T04:28:37.748Z,0
2016-11-25T04:29:18.285Z,0
2016-11-25T04:29:58.826Z,0
2016-11-25T04:30:39.364Z,0
2016-11-25T04:31:19.893Z,0
2016-11-25T04:32:00.432Z,0
2016-11-25T04:32:40.966Z,0
2016-11-25T04:33:21.497Z,0
2016-11-25T04:34:02.050Z,0
2016-11-25T04:34:42.575Z,0
2016-11-25T04:35:23.103Z,0
2016-11-25T04:36:03.642Z,0
2016-11-25T04:36:44.183Z,0
2016-11-25T04:37:24.714Z,0
2016-11-25T04:38:05.249Z,0
2016-11-25T04:38:45.787Z,0
2016-11-25T04:39:26.330Z,0
2016-11-25T04:40:06.866Z,0
2016-11-25T04:40:47.407Z,0
2016-11-25T04:41:27.938Z,0
2016-11-25T04:42:08.474Z,0
2016-11-25T04:42:49.008Z,0
2016-11-25T04:43:29.542Z,0
2016-11-25T04:44:10.086Z,0
2016-11-25T04:44:50.624Z,0
2016-11-25T04:45:31.195Z,0
2016-11-25T04:46:11.741Z,0
2016-11-25T04:46:52.294Z,0
2016-11-25T04:47:32.836Z,0
2016-11-25T04:48:13.375Z,0
2016-11-25T04:48:53.945Z,0
2016-11-25T04:49:34.484Z,0
2016-11-25T04:50:15.022Z,0
2016-11-25T04:50:55.557Z,0
2016-11-25T04:51:36.105Z,0
2016-11-25T04:52:16.639Z,0
2016-11-25T04:52:57.186Z,0
2016-11-25T04:53:37.722Z,0
2016-11-25T04:54:18.319Z,0
2016-11-25T04:54:58.861Z,0
2016-11-25T04:57:38.545Z,0
2016-11-25T04:58:19.085Z,0
2016-11-25T04:58:59.663Z,0
2016-11-25T04:59:40.196Z,0
2016-11-25T05:00:20.733Z,0
2016-11-25T05:01:01.262Z,0
2016-11-25T05:01:41.801Z,0
2016-11-25T05:02:22.328Z,0
2016-11-25T05:03:02.866Z,0
2016-11-25T05:03:43.398Z,0
2016-11-25T05:04:23.935Z,0
2016-11-25T05:05:04.474Z,0
2016-11-25T05:05:45.017Z,0
2016-11-25T05:06:25.544Z,0
2016-11-25T05:07:06.069Z,0
2016-11-25T05:07:46.603Z,0
2016-11-25T05:08:27.141Z,0
2016-11-25T05:09:07.682Z,0
2016-11-25T05:09:48.225Z,0
2016-11-25T05:10:28.772Z,0
2016-11-25T05:11:09.297Z,0
2016-11-25T05:11:49.833Z,0
2016-11-25T05:12:30.366Z,0
2016-11-25T05:13:10.927Z,0
2016-11-25T05:13:51.456Z,0
2016-11-25T05:14:31.984Z,0
2016-11-25T05:15:12.520Z,0
2016-11-25T05:15:53.057Z,0
2016-11-25T05:16:33.602Z,0
2016-11-25T05:17:14.133Z,0
2016-11-25T05:17:54.659Z,0
2016-11-25T05:18:35.198Z,0
2016-11-25T05:19:15.736Z,0
2016-11-25T05:19:56.265Z,0
2016-11-25T05:20:36.824Z,0
2016-11-25T05:21:17.358Z,0
2016-11-25T05:21:57.905Z,0
2016-11-25T05:22:38.434Z,0
2016-11-25T05:23:18.975Z,0
2016-11-25T05:23:59.512Z,0
2016-11-25T05:24:40.052Z,0
2016-11-25T05:25:20.589Z,0
2016-11-25T05:26:01.127Z,0
2016-11-25T05:26:41.659Z,0
2016-11-25T05:27:22.198Z,0
2016-11-25T05:28:02.740Z,0
2016-11-25T05:28:43.276Z,0
2016-11-25T05:29:23.819Z,0
2016-11-25T05:30:04.369Z,0
2016-11-25T05:30:44.906Z,0
2016-11-25T05:31:25.443Z,0
2016-11-25T05:32:05.986Z,0
2016-11-25T05:32:46.518Z,0
2016-11-25T05:33:27.053Z,0
2016-11-25T05:34:07.601Z,0
2016-11-25T05:34:48.136Z,0
2016-11-25T05:35:28.675Z,0
2016-11-25T05:36:09.213Z,0
2016-11-25T05:36:49.742Z,0
2016-11-25T05:37:30.288Z,0
2016-11-25T05:38:10.817Z,0
2016-11-25T05:38:51.352Z,0
2016-11-25T05:39:31.886Z,0
2016-11-25T05:40:12.423Z,0
2016-11-25T05:40:52.968Z,0
2016-11-25T05:41:33.496Z,0
2016-11-25T05:42:14.041Z,0
2016-11-25T05:42:54.585Z,0
2016-11-25T05:43:35.107Z,0
2016-11-25T05:44:15.642Z,0
2016-11-25T05:44:56.196Z,0
2016-11-25T05:45:36.703Z,0
2016-11-25T05:46:17.225Z,0
2016-11-25T05:46:57.766Z,0
2016-11-25T05:47:38.302Z,0
2016-11-25T05:48:18.847Z,0
2016-11-25T05:48:59.382Z,0
2016-11-25T05:49:39.913Z,0
2016-11-25T05:50:20.537Z,0
2016-11-25T05:51:01.078Z,0
2016-11-25T05:51:41.614Z,0
2016-11-25T05:52:22.148Z,0
2016-11-25T05:53:02.683Z,0
2016-11-25T05:53:43.226Z,0
2016-11-25T05:54:23.757Z,0
2016-11-25T05:55:04.301Z,0
2016-11-25T05:55:44.832Z,0
2016-11-25T05:56:25.362Z,0
2016-11-25T05:57:05.899Z,0
2016-11-25T05:57:46.429Z,0
2016-11-25T05:58:26.959Z,0
2016-11-25T05:59:07.505Z,0
2016-11-25T05:59:48.034Z,0
2016-11-25T06:00:28.580Z,0
2016-11-25T06:01:09.109Z,0
2016-11-25T06:01:49.648Z,0
2016-11-25T06:02:30.186Z,0
2016-11-25T06:03:10.726Z,0
2016-11-25T06:03:51.249Z,0
2016-11-25T06:04:31.788Z,0
2016-11-25T06:05:12.321Z,0
2016-11-25T06:05:52.859Z,0
2016-11-25T06:06:33.397Z,0
2016-11-25T06:07:13.918Z,0
2016-11-25T06:07:54.464Z,0
2016-11-25T06:08:35.001Z,0
2016-11-25T06:09:15.541Z,0
2016-11-25T06:09:56.072Z,0
2016-11-25T06:10:36.610Z,0
2016-11-25T06:11:17.143Z,0
2016-11-25T06:11:57.670Z,0
2016-11-25T06:12:38.217Z,0
2016-11-25T06:13:18.756Z,0
2016-11-25T06:13:59.288Z,0
2016-11-25T06:14:39.828Z,0
2016-11-25T06:15:20.365Z,0
2016-11-25T06:16:00.900Z,0
2016-11-25T06:16:41.443Z,0
2016-11-25T06:17:21.975Z,0
2016-11-25T06:18:02.502Z,0
2016-11-25T06:18:43.035Z,0
2016-11-25T06:19:23.573Z,0
2016-11-25T06:20:04.109Z,0
2016-11-25T06:20:44.653Z,0
2016-11-25T06:21:25.189Z,0
2016-11-25T06:22:05.724Z,0
2016-11-25T06:22:46.262Z,0
2016-11-25T06:23:26.784Z,0
2016-11-25T06:24:07.321Z,0
2016-11-25T06:24:47.864Z,0
2016-11-25T06:25:28.398Z,0
2016-11-25T06:26:08.931Z,0
2016-11-25T06:26:49.457Z,0
2016-11-25T06:27:29.985Z,0
2016-11-25T06:28:10.522Z,0
2016-11-25T06:28:51.067Z,0
2016-11-25T06:29:31.605Z,0
2016-11-25T06:30:12.146Z,0
2016-11-25T06:30:52.682Z,0
2016-11-25T06:31:33.218Z,0
2016-11-25T06:32:13.750Z,0
2016-11-25T06:32:54.287Z,4
2016-11-25T06:33:34.833Z,4
2016-11-25T06:34:15.371Z,4
2016-11-25T06:34:55.909Z,4
2016-11-25T06:35:36.459Z,0
2016-11-25T06:36:16.988Z,4
2016-11-25T06:36:57.550Z,4
2016-11-25T06:37:38.082Z,4
2016-11-25T06:38:18.623Z,4
2016-11-25T06:38:59.146Z,4
2016-11-25T06:39:39.681Z,4
2016-11-25T06:40:20.233Z,8
2016-11-25T06:41:00.775Z,4
2016-11-25T06:41:41.315Z,8
2016-11-25T06:42:21.855Z,8
2016-11-25T06:43:02.393Z,8
2016-11-25T06:43:42.914Z,12
2016-11-25T06:44:23.451Z,8
2016-11-25T06:45:03.989Z,12
2016-11-25T06:45:44.534Z,12
2016-11-25T06:46:25.057Z,12
2016-11-25T06:47:05.601Z,16
2016-11-25T06:47:46.148Z,16
2016-11-25T06:48:26.675Z,20
2016-11-25T06:49:07.213Z,20
2016-11-25T06:49:47.755Z,20
2016-11-25T06:50:28.292Z,24
2016-11-25T06:51:08.834Z,28
2016-11-25T06:51:49.374Z,28
2016-11-25T06:52:29.914Z,32
2016-11-25T06:53:10.449Z,36
2016-11-25T06:53:50.979Z,36
2016-11-25T06:54:31.515Z,44
2016-11-25T06:55:12.059Z,44
2016-11-25T06:55:52.597Z,48
2016-11-25T06:56:33.138Z,52
2016-11-25T06:57:13.673Z,56
2016-11-25T06:57:54.221Z,60
2016-11-25T06:58:34.755Z,68
2016-11-25T06:59:15.294Z,68
2016-11-25T06:59:55.814Z,76
2016-11-25T07:00:36.353Z,76
2016-11-25T07:01:16.898Z,84
2016-11-25T07:01:57.434Z,92
2016-11-25T07:02:37.962Z,92
2016-11-25T07:03:18.504Z,100
2016-11-25T07:03:59.038Z,108
2016-11-25T07:04:39.576Z,108
2016-11-25T07:05:20.110Z,116
2016-11-25T07:06:00.647Z,120
2016-11-25T07:06:41.188Z,128
2016-11-25T07:07:21.712Z,136
2016-11-25T07:08:02.242Z,144
2016-11-25T07:08:42.779Z,152
2016-11-25T07:09:23.326Z,160
2016-11-25T07:10:03.851Z,172
2016-11-25T07:10:44.386Z,180
2016-11-25T07:11:24.923Z,188
2016-11-25T07:12:05.453Z,196
2016-11-25T07:12:45.986Z,204
2016-11-25T07:13:26.517Z,216
2016-11-25T07:14:07.061Z,224
2016-11-25T07:14:47.608Z,232
2016-11-25T07:15:28.147Z,244
2016-11-25T07:16:08.680Z,252
2016-11-25T07:16:49.219Z,260
2016-11-25T07:17:29.750Z,272
2016-11-25T07:18:10.287Z,280
2016-11-25T07:18:50.824Z,292
2016-11-25T07:19:31.359Z,304
2016-11-25T07:20:11.909Z,316
2016-11-25T07:20:52.438Z,324
2016-11-25T07:21:32.973Z,336
2016-11-25T07:22:13.515Z,348
2016-11-25T07:22:54.040Z,360
2016-11-25T07:23:34.575Z,372
2016-11-25T07:24:15.113Z,388
2016-11-25T07:24:55.651Z,400
2016-11-25T07:25:36.190Z,412
2016-11-25T07:26:16.719Z,424
2016-11-25T07:26:57.252Z,436
2016-11-25T07:27:37.787Z,448
2016-11-25T07:28:18.320Z,464
2016-11-25T07:28:59.037Z,476
2016-11-25T07:29:39.564Z,496
2016-11-25T07:30:20.100Z,508
2016-11-25T07:31:00.633Z,520
2016-11-25T07:31:41.213Z,536
2016-11-25T07:32:21.743Z,544
2016-11-25T07:33:02.274Z,560
2016-11-25T07:33:42.811Z,580
2016-11-25T07:34:23.341Z,592
2016-11-25T07:35:03.888Z,604
2016-11-25T07:35:44.419Z,620
2016-11-25T07:36:24.977Z,640
2016-11-25T07:37:05.489Z,656
2016-11-25T07:37:46.015Z,676
2016-11-25T07:38:26.544Z,692
2016-11-25T07:39:07.062Z,712
2016-11-25T07:39:47.591Z,732
2016-11-25T07:40:28.131Z,756
2016-11-25T07:41:08.677Z,780
2016-11-25T07:41:49.215Z,804
2016-11-25T07:42:29.745Z,812
2016-11-25T07:43:10.285Z,816
2016-11-25T07:43:50.814Z,824
2016-11-25T07:44:31.349Z,836
2016-11-25T07:45:11.885Z,860
2016-11-25T07:45:52.432Z,872
2016-11-25T07:46:32.973Z,892
2016-11-25T07:47:13.504Z,908
2016-11-25T07:47:54.047Z,920
2016-11-25T07:48:34.576Z,928
2016-11-25T07:49:15.160Z,944
2016-11-25T07:49:55.698Z,956
2016-11-25T07:50:36.226Z,964
2016-11-25T07:51:16.761Z,976
2016-11-25T07:51:57.301Z,992
2016-11-25T07:52:37.838Z,1008
2016-11-25T07:53:18.379Z,1028
2016-11-25T07:53:58.919Z,1044
2016-11-25T07:54:39.455Z,1060
2016-11-25T07:55:19.992Z,1072
2016-11-25T07:56:00.525Z,1088
2016-11-25T07:56:41.056Z,1108
2016-11-25T07:57:21.596Z,1124
2016-11-25T07:58:02.139Z,1144
2016-11-25T07:58:42.681Z,1168
2016-11-25T07:59:23.209Z,1172
2016-11-25T08:00:03.749Z,1192
2016-11-25T08:00:44.284Z,1208
2016-11-25T08:01:24.818Z,1224
2016-11-25T08:02:05.356Z,1240
2016-11-25T08:02:45.895Z,1256
2016-11-25T08:03:26.433Z,1268
2016-11-25T08:04:06.977Z,1284
2016-11-25T08:04:47.515Z,1304
2016-11-25T08:05:28.061Z,1316
2016-11-25T08:06:08.600Z,1328
2016-11-25T08:06:49.140Z,1356
2016-11-25T08:07:29.678Z,1372
2016-11-25T08:08:10.215Z,1376
2016-11-25T08:08:50.762Z,1400
2016-11-25T08:09:31.300Z,1428
2016-11-25T08:10:11.838Z,1444
2016-11-25T08:10:52.375Z,1460
2016-11-25T08:11:32.899Z,1476
2016-11-25T08:12:13.430Z,1488
2016-11-25T08:12:53.969Z,1500
2016-11-25T08:13:34.505Z,1500
2016-11-25T08:14:15.042Z,1492
2016-11-25T08:14:55.575Z,1496
2016-11-25T08:15:36.123Z,1520
2016-11-25T08:16:16.665Z,1572
2016-11-25T08:16:57.223Z,1600
2016-11-25T08:17:37.753Z,1644
2016-11-25T08:18:18.292Z,1676
2016-11-25T08:18:58.834Z,1696
2016-11-25T08:19:39.370Z,1724
2016-11-25T08:20:19.911Z,1808
2016-11-25T08:21:00.451Z,1904
2016-11-25T08:21:40.976Z,2032
2016-11-25T08:22:21.526Z,2120
2016-11-25T08:23:02.102Z,2160
2016-11-25T08:23:42.657Z,2140
2016-11-25T08:24:23.200Z,2112
2016-11-25T08:25:03.742Z,2076
2016-11-25T08:25:44.273Z,2064
2016-11-25T08:26:24.817Z,2020
2016-11-25T08:27:05.340Z,2064
2016-11-25T08:27:45.868Z,2084
2016-11-25T08:28:26.408Z,2064
2016-11-25T08:29:06.948Z,2112
2016-11-25T08:29:47.490Z,2192
2016-11-25T08:30:28.032Z,2280
2016-11-25T08:31:08.569Z,2276
2016-11-25T08:31:49.094Z,2348
2016-11-25T08:32:29.631Z,2544
2016-11-25T08:33:10.171Z,2512
2016-11-25T08:33:50.711Z,2472
2016-11-25T08:34:31.241Z,2624
2016-11-25T08:35:11.786Z,2704
2016-11-25T08:35:52.330Z,2716
2016-11-25T08:36:32.868Z,2628
2016-11-25T08:37:13.402Z,2608
2016-11-25T08:37:53.936Z,2640
2016-11-25T08:38:34.472Z,2656
2016-11-25T08:39:15.012Z,2632
2016-11-25T08:39:55.554Z,2580
2016-11-25T08:40:36.088Z,2508
2016-11-25T08:41:16.623Z,2504
2016-11-25T08:41:57.162Z,2348
2016-11-25T08:42:37.694Z,2312
2016-11-25T08:43:18.262Z,2448
2016-11-25T08:43:58.800Z,2496
2016-11-25T08:44:39.340Z,2480
2016-11-25T08:45:19.879Z,2404
2016-11-25T08:46:00.422Z,2376
2016-11-25T08:46:40.953Z,2372
2016-11-25T08:47:21.488Z,2452
2016-11-25T08:48:02.027Z,2556
2016-11-25T08:48:42.550Z,2724
2016-11-25T08:49:23.092Z,2872
2016-11-25T08:50:03.641Z,2844
2016-11-25T08:50:44.173Z,2796
2016-11-25T08:51:24.704Z,2956
2016-11-25T08:52:05.250Z,3008
2016-11-25T08:52:45.782Z,3248
2016-11-25T08:53:26.297Z,3024
2016-11-25T08:54:06.848Z,3100
2016-11-25T08:54:47.391Z,3104
2016-11-25T08:55:27.929Z,3056
2016-11-25T08:56:08.478Z,3716
2016-11-25T08:56:49.016Z,3292
2016-11-25T08:57:29.554Z,3484
2016-11-25T08:58:10.085Z,5028
2016-11-25T08:58:50.627Z,5884
2016-11-25T08:59:31.163Z,5240
2016-11-25T09:00:11.697Z,4244
2016-11-25T09:00:52.239Z,3484
2016-11-25T09:01:32.776Z,4176
2016-11-25T09:02:13.314Z,4320
2016-11-25T09:02:53.859Z,4416
2016-11-25T09:03:34.394Z,4992
2016-11-25T09:04:14.949Z,5572
2016-11-25T09:04:55.469Z,6364
2016-11-25T09:05:35.998Z,5844
2016-11-25T09:06:16.537Z,5608
2016-11-25T09:06:57.066Z,5844
2016-11-25T09:07:37.610Z,5604
2016-11-25T09:08:18.143Z,5588
2016-11-25T09:08:58.684Z,5212
2016-11-25T09:09:39.224Z,5436
2016-11-25T09:10:19.761Z,5516
2016-11-25T09:11:00.303Z,5740
2016-11-25T09:11:40.843Z,5648
2016-11-25T09:12:21.383Z,5368
2016-11-25T09:13:01.920Z,5048
2016-11-25T09:13:42.466Z,4876
2016-11-25T09:14:22.999Z,4968
2016-11-25T09:15:03.547Z,5048
2016-11-25T09:15:44.087Z,5148
2016-11-25T09:16:24.625Z,5256
2016-11-25T09:17:05.178Z,5208
2016-11-25T09:17:45.718Z,5404
2016-11-25T09:18:26.258Z,5452
2016-11-25T09:19:06.801Z,5376
2016-11-25T09:19:47.330Z,5416
2016-11-25T09:20:27.873Z,4484
2016-11-25T09:21:08.417Z,5716
2016-11-25T09:21:48.952Z,5144
2016-11-25T09:22:29.497Z,5920
2016-11-25T09:23:10.033Z,5960
2016-11-25T09:23:50.572Z,5900
2016-11-25T09:24:31.122Z,5600
2016-11-25T09:25:11.665Z,6016
2016-11-25T09:25:52.215Z,5532
2016-11-25T09:26:32.762Z,4804
2016-11-25T09:27:13.304Z,6152
2016-11-25T09:27:53.845Z,5132
2016-11-25T09:28:34.382Z,4176
2016-11-25T09:29:14.913Z,5200
2016-11-25T09:29:55.452Z,5996
2016-11-25T09:30:35.995Z,7324
2016-11-25T09:31:16.540Z,7948
2016-11-25T09:31:57.078Z,7568
2016-11-25T09:32:37.619Z,8680
2016-11-25T09:33:18.167Z,7848
2016-11-25T09:33:58.711Z,7576
2016-11-25T09:34:39.256Z,8648
2016-11-25T09:35:19.792Z,8400
2016-11-25T09:36:00.332Z,8008
2016-11-25T09:36:40.872Z,8300
2016-11-25T09:37:21.414Z,8568
2016-11-25T09:38:01.951Z,9608
2016-11-25T09:38:42.492Z,11032
2016-11-25T09:39:23.037Z,12644
2016-11-25T09:40:03.576Z,5320
2016-11-25T09:40:44.116Z,4904
2016-11-25T09:41:24.661Z,12780
2016-11-25T09:42:05.209Z,14304
2016-11-25T09:42:45.749Z,14432
2016-11-25T09:43:26.296Z,14496
2016-11-25T09:44:06.827Z,14784
2016-11-25T09:44:47.380Z,15072
2016-11-25T09:45:27.917Z,15392
2016-11-25T09:46:08.462Z,9088
2016-11-25T09:46:49.008Z,12664
2016-11-25T09:47:29.549Z,4544
2016-11-25T09:48:10.093Z,10300
2016-11-25T09:48:50.638Z,16160
2016-11-25T09:49:31.180Z,16448
2016-11-25T09:50:11.729Z,16608
2016-11-25T09:50:52.270Z,16320
2016-11-25T09:51:32.816Z,16864
2016-11-25T09:52:13.355Z,17088
2016-11-25T09:52:53.905Z,14364
2016-11-25T09:53:34.443Z,17216
2016-11-25T09:54:14.983Z,17568
2016-11-25T09:54:55.525Z,17600
2016-11-25T09:55:36.067Z,17472
2016-11-25T09:56:16.606Z,16800
2016-11-25T09:56:57.150Z,16160
2016-11-25T09:57:37.699Z,17024
2016-11-25T09:58:18.247Z,17408
2016-11-25T09:58:58.795Z,18208
2016-11-25T09:59:39.339Z,18400
2016-11-25T10:00:19.884Z,18592
2016-11-25T10:01:00.418Z,18048
2016-11-25T10:01:40.965Z,18208
2016-11-25T10:02:21.513Z,17344
2016-11-25T10:03:02.057Z,17536
2016-11-25T10:03:42.601Z,16928
2016-11-25T10:04:23.144Z,17728
2016-11-25T10:05:03.688Z,11524
2016-11-25T10:05:44.232Z,17632
2016-11-25T10:06:24.776Z,18848
2016-11-25T10:07:05.321Z,19232
2016-11-25T10:07:45.863Z,19072
2016-11-25T10:08:26.406Z,19392
2016-11-25T10:09:06.957Z,19136
2016-11-25T10:09:47.508Z,7612
2016-11-25T10:10:28.058Z,18336
2016-11-25T10:11:08.601Z,16800
2016-11-25T10:11:49.149Z,19200
2016-11-25T10:12:29.693Z,19840
2016-11-25T10:13:10.239Z,19872
2016-11-25T10:13:50.781Z,19808
2016-11-25T10:14:31.328Z,19200
2016-11-25T10:15:11.869Z,19872
2016-11-25T10:15:52.407Z,14888
2016-11-25T10:16:32.957Z,19552
2016-11-25T10:17:13.503Z,20768
2016-11-25T10:17:54.048Z,21248
2016-11-25T10:18:34.591Z,20832